createdAt,value
2017-05-25T00:01:53.426Z,11.90
2017-05-25T00:04:21.116Z,12.00
2017-05-25T00:06:48.772Z,12.00
2017-05-25T00:09:16.834Z,12.10
2017-05-25T00:11:44.494Z,12.00
2017-05-25T00:14:12.924Z,12.00
2017-05-25T00:16:40.611Z,12.00
2017-05-25T00:19:09.024Z,12.10
2017-05-25T00:21:37.016Z,12.00
2017-05-25T00:24:04.660Z,12.00
2017-05-25T00:26:32.320Z,12.00
2017-05-25T00:29:00.001Z,12.00
2017-05-25T00:31:27.661Z,11.90
2017-05-25T00:33:56.371Z,11.80
2017-05-25T00:36:24.021Z,11.80
2017-05-25T00:38:51.662Z,11.80
2017-05-25T00:41:19.341Z,11.80
2017-05-25T00:43:46.993Z,11.80
2017-05-25T00:46:15.012Z,11.80
2017-05-25T00:48:42.664Z,11.70
2017-05-25T00:51:10.321Z,11.70
2017-05-25T00:53:38.001Z,11.80
2017-05-25T00:56:05.653Z,11.80
2017-05-25T00:58:34.504Z,11.70
2017-05-25T01:01:02.158Z,11.70
2017-05-25T01:03:29.819Z,11.70
2017-05-25T01:05:57.488Z,11.70
2017-05-25T01:08:25.135Z,11.60
2017-05-25T01:10:53.118Z,11.60
2017-05-25T01:13:21.541Z,11.50
2017-05-25T01:15:49.181Z,11.40
2017-05-25T01:18:16.862Z,11.30
2017-05-25T01:20:44.515Z,11.30
2017-05-25T01:23:12.474Z,11.40
2017-05-25T01:25:40.126Z,11.30
2017-05-25T01:28:08.536Z,11.20
2017-05-25T01:30:37.009Z,11.10
2017-05-25T01:33:04.662Z,11.00
2017-05-25T01:35:33.366Z,11.00
2017-05-25T01:38:01.005Z,11.00
2017-05-25T01:40:28.641Z,11.00
2017-05-25T01:42:56.311Z,11.00
2017-05-25T01:45:24.721Z,11.00
2017-05-25T01:47:52.655Z,11.00
2017-05-25T01:50:20.310Z,11.00
2017-05-25T01:52:48.735Z,11.10
2017-05-25T01:55:17.224Z,11.10
2017-05-25T01:57:44.863Z,11.00
2017-05-25T02:00:12.795Z,11.10
2017-05-25T02:02:40.440Z,11.10
2017-05-25T02:05:08.093Z,11.20
2017-05-25T02:07:35.753Z,11.20
2017-05-25T02:10:03.411Z,11.20
2017-05-25T02:12:31.082Z,11.20
2017-05-25T02:14:58.764Z,11.20
2017-05-25T02:17:26.423Z,11.20
2017-05-25T02:19:54.065Z,11.30
2017-05-25T02:22:22.015Z,11.40
2017-05-25T02:24:49.763Z,11.40
2017-05-25T02:27:17.410Z,11.50
2017-05-25T02:29:45.860Z,11.50
2017-05-25T02:32:13.572Z,11.40
2017-05-25T02:34:41.591Z,11.50
2017-05-25T02:37:09.253Z,11.50
2017-05-25T02:39:37.675Z,11.60
2017-05-25T02:42:05.357Z,11.50
2017-05-25T02:44:33.000Z,11.60
2017-05-25T02:47:01.736Z,11.60
2017-05-25T02:49:29.438Z,11.50
2017-05-25T02:51:57.077Z,11.60
2017-05-25T02:54:24.763Z,11.50
2017-05-25T02:56:52.417Z,11.50
2017-05-25T02:59:21.238Z,11.30
2017-05-25T03:01:48.890Z,11.20
2017-05-25T03:04:17.301Z,11.30
2017-05-25T03:06:44.974Z,11.20
2017-05-25T03:09:12.635Z,11.20
2017-05-25T03:11:40.592Z,11.20
2017-05-25T03:14:08.998Z,11.10
2017-05-25T03:16:37.424Z,11.10
2017-05-25T03:19:05.104Z,11.00
2017-05-25T03:21:32.765Z,11.00
2017-05-25T03:24:00.764Z,11.00
2017-05-25T03:26:28.404Z,11.00
2017-05-25T03:28:56.078Z,11.00
2017-05-25T03:31:24.521Z,11.10
2017-05-25T03:33:52.941Z,11.00
2017-05-25T03:36:20.945Z,11.00
2017-05-25T03:38:49.361Z,11.20
2017-05-25T03:41:17.026Z,11.10
2017-05-25T03:43:46.731Z,11.30
2017-05-25T03:46:14.394Z,11.20
2017-05-25T03:48:43.210Z,11.20
2017-05-25T03:51:11.121Z,11.10
2017-05-25T03:53:38.821Z,11.20
2017-05-25T03:56:07.265Z,11.20
2017-05-25T03:58:36.245Z,11.30
2017-05-25T04:01:04.464Z,11.20
2017-05-25T04:03:33.314Z,11.40
2017-05-25T04:06:02.397Z,11.50
2017-05-25T04:08:30.850Z,11.50
2017-05-25T04:10:58.512Z,11.50
2017-05-25T04:13:26.524Z,11.60
2017-05-25T04:15:54.169Z,11.60
2017-05-25T04:18:26.562Z,11.70
2017-05-25T04:20:56.102Z,11.70
2017-05-25T04:23:23.754Z,11.70
2017-05-25T04:25:51.798Z,11.60
2017-05-25T04:28:21.043Z,11.50
2017-05-25T04:30:49.257Z,11.50
2017-05-25T04:33:17.019Z,11.60
2017-05-25T04:35:45.441Z,11.90
2017-05-25T04:38:13.474Z,11.80
2017-05-25T04:40:41.439Z,12.00
2017-05-25T04:43:10.949Z,12.20
2017-05-25T04:45:38.768Z,12.30
2017-05-25T04:48:06.418Z,12.40
2017-05-25T04:50:34.376Z,12.50
2017-05-25T04:53:02.033Z,12.60
2017-05-25T04:55:29.877Z,12.80
2017-05-25T04:57:57.554Z,12.80
2017-05-25T05:00:27.376Z,12.90
2017-05-25T05:02:57.345Z,13.00
2017-05-25T05:05:25.912Z,13.00
2017-05-25T05:07:53.608Z,13.10
2017-05-25T05:10:22.044Z,13.20
2017-05-25T05:12:50.157Z,13.10
2017-05-25T05:15:18.109Z,13.30
2017-05-25T05:17:45.973Z,13.40
2017-05-25T05:20:13.684Z,13.60
2017-05-25T05:22:41.374Z,13.80
2017-05-25T05:25:10.271Z,13.80
2017-05-25T05:27:38.753Z,14.00
2017-05-25T05:30:06.405Z,14.30
2017-05-25T05:32:34.063Z,14.30
2017-05-25T05:35:01.737Z,14.40
2017-05-25T05:37:29.387Z,14.40
2017-05-25T05:39:58.110Z,14.20
2017-05-25T05:42:25.765Z,14.10
2017-05-25T05:44:53.460Z,14.00
2017-05-25T05:47:21.132Z,14.10
2017-05-25T05:49:49.550Z,14.20
2017-05-25T05:52:17.620Z,14.10
2017-05-25T05:54:45.273Z,14.50
2017-05-25T05:57:12.930Z,14.90
2017-05-25T05:59:41.381Z,16.00
2017-05-25T06:02:09.785Z,16.50
2017-05-25T06:04:37.737Z,16.50
2017-05-25T06:07:06.157Z,17.10
2017-05-25T06:09:34.629Z,17.70
2017-05-25T06:12:02.309Z,17.60
2017-05-25T06:14:29.938Z,18.30
2017-05-25T06:16:58.624Z,19.10
2017-05-25T06:19:27.023Z,19.60
2017-05-25T06:21:54.738Z,19.50
2017-05-25T06:24:22.406Z,19.90
2017-05-25T06:26:50.033Z,19.90
2017-05-25T06:29:18.149Z,19.90
2017-05-25T06:31:45.788Z,20.00
2017-05-25T06:34:13.421Z,20.30
2017-05-25T06:36:41.840Z,21.70
2017-05-25T06:39:10.238Z,22.20
2017-05-25T06:41:38.222Z,22.20
2017-05-25T06:44:05.861Z,21.60
2017-05-25T06:46:33.534Z,20.80
2017-05-25T06:49:01.168Z,20.20
2017-05-25T06:51:28.788Z,19.80
2017-05-25T06:53:56.736Z,19.50
2017-05-25T06:56:24.367Z,19.10
2017-05-25T06:58:52.018Z,18.90
2017-05-25T07:01:19.786Z,18.50
2017-05-25T07:03:47.432Z,18.50
2017-05-25T07:06:15.600Z,19.00
2017-05-25T07:08:43.222Z,19.00
2017-05-25T07:11:10.860Z,19.80
2017-05-25T07:13:38.553Z,20.40
2017-05-25T07:16:06.176Z,20.80
2017-05-25T07:18:34.849Z,20.70
2017-05-25T07:21:02.485Z,20.60
2017-05-25T07:23:30.101Z,19.70
2017-05-25T07:25:57.841Z,19.00
2017-05-25T07:28:25.468Z,19.10
2017-05-25T07:30:53.403Z,19.60
2017-05-25T07:33:21.031Z,20.10
2017-05-25T07:35:48.887Z,20.10
2017-05-25T07:38:16.586Z,19.40
2017-05-25T07:40:44.243Z,19.10
2017-05-25T07:43:12.253Z,19.00
2017-05-25T07:45:40.057Z,19.20
2017-05-25T07:48:08.492Z,20.80
2017-05-25T07:50:36.154Z,20.70
2017-05-25T07:53:04.554Z,21.60
2017-05-25T07:55:32.533Z,21.50
2017-05-25T07:58:00.153Z,21.00
2017-05-25T08:00:27.836Z,20.50
2017-05-25T08:02:55.489Z,19.40
2017-05-25T08:05:23.148Z,18.80
2017-05-25T08:07:51.096Z,18.20
2017-05-25T08:10:18.754Z,17.80
2017-05-25T08:12:46.414Z,17.50
2017-05-25T08:15:14.100Z,17.30
2017-05-25T08:17:41.753Z,17.50
2017-05-25T08:20:09.739Z,18.80
2017-05-25T08:22:37.395Z,18.90
2017-05-25T08:25:05.054Z,19.00
2017-05-25T08:27:32.733Z,18.90
2017-05-25T08:30:00.482Z,18.60
2017-05-25T08:32:28.533Z,18.00
2017-05-25T08:34:56.200Z,18.00
2017-05-25T08:37:23.873Z,17.90
2017-05-25T08:39:51.552Z,18.10
2017-05-25T08:42:19.259Z,18.70
2017-05-25T08:44:47.322Z,19.10
2017-05-25T08:47:15.096Z,19.40
2017-05-25T08:49:42.755Z,19.30
2017-05-25T08:52:10.481Z,18.90
2017-05-25T08:54:38.173Z,18.50
2017-05-25T08:57:06.867Z,20.90
2017-05-25T08:59:35.607Z,22.50
2017-05-25T09:02:04.649Z,22.40
2017-05-25T09:04:32.376Z,23.10
2017-05-25T09:07:00.006Z,22.70
2017-05-25T09:09:28.005Z,22.70
2017-05-25T09:11:55.630Z,21.80
2017-05-25T09:14:23.265Z,21.10
2017-05-25T09:16:50.938Z,20.20
2017-05-25T09:19:18.580Z,19.50
2017-05-25T09:21:49.057Z,19.30
2017-05-25T09:24:16.837Z,19.50
2017-05-25T09:26:44.460Z,19.70
2017-05-25T09:29:12.170Z,20.00
2017-05-25T09:31:45.922Z,19.70
2017-05-25T09:34:14.049Z,19.70
2017-05-25T09:36:42.445Z,20.10
2017-05-25T09:39:10.075Z,20.00
2017-05-25T09:41:37.734Z,19.60
2017-05-25T09:44:05.356Z,20.50
2017-05-25T09:46:37.805Z,21.90
2017-05-25T09:49:11.045Z,23.60
2017-05-25T09:51:41.057Z,23.50
2017-05-25T09:54:09.006Z,24.10
2017-05-25T09:56:36.626Z,24.20
2017-05-25T09:59:06.130Z,23.20
2017-05-25T10:01:37.258Z,23.10
2017-05-25T10:04:08.098Z,23.50
2017-05-25T10:06:36.619Z,23.40
2017-05-25T10:09:05.555Z,23.40
2017-05-25T10:11:34.756Z,23.70
2017-05-25T10:14:03.891Z,24.10
2017-05-25T10:16:31.905Z,24.70
2017-05-25T10:18:59.546Z,24.90
2017-05-25T10:21:27.217Z,24.80
2017-05-25T10:23:54.877Z,24.20
2017-05-25T10:26:22.511Z,24.10
2017-05-25T10:28:51.262Z,23.50
2017-05-25T10:31:18.951Z,23.50
2017-05-25T10:33:46.581Z,23.10
2017-05-25T10:36:15.000Z,21.50
2017-05-25T10:38:42.625Z,21.40
2017-05-25T10:41:10.755Z,20.90
2017-05-25T10:43:39.186Z,21.20
2017-05-25T10:46:06.864Z,21.20
2017-05-25T10:48:35.276Z,20.80
2017-05-25T10:51:02.909Z,20.80
2017-05-25T10:53:30.565Z,20.50
2017-05-25T10:55:58.980Z,20.00
2017-05-25T10:58:27.017Z,20.00
2017-05-25T11:00:54.674Z,19.80
2017-05-25T11:03:22.347Z,19.90
2017-05-25T11:05:50.044Z,19.60
2017-05-25T11:08:17.764Z,19.60
2017-05-25T11:10:46.149Z,19.60
2017-05-25T11:13:13.804Z,19.50
2017-05-25T11:15:42.229Z,19.80
2017-05-25T11:18:09.904Z,19.80
2017-05-25T11:20:37.560Z,19.80
2017-05-25T11:23:06.020Z,20.30
2017-05-25T11:25:33.669Z,20.20
2017-05-25T11:28:01.359Z,20.30
2017-05-25T11:30:29.383Z,20.00
2017-05-25T11:32:57.032Z,20.00
2017-05-25T11:35:24.705Z,19.90
2017-05-25T11:37:53.214Z,20.40
2017-05-25T11:40:20.836Z,20.40
2017-05-25T11:42:49.574Z,21.00
2017-05-25T11:45:17.218Z,20.90
2017-05-25T11:47:44.843Z,20.90
2017-05-25T11:50:13.261Z,20.60
2017-05-25T11:52:41.656Z,20.50
2017-05-25T11:55:10.461Z,20.40
2017-05-25T11:57:38.124Z,20.30
2017-05-25T12:00:05.742Z,20.40
2017-05-25T12:02:33.387Z,20.30
2017-05-25T12:05:01.070Z,20.20
2017-05-25T12:07:30.036Z,20.00
2017-05-25T12:09:58.456Z,19.60
2017-05-25T12:12:26.206Z,19.60
2017-05-25T12:14:53.925Z,19.20
2017-05-25T12:17:22.425Z,19.20
2017-05-25T12:19:50.515Z,19.10
2017-05-25T12:22:18.188Z,19.40
2017-05-25T12:24:45.846Z,19.20
2017-05-25T12:27:14.290Z,19.10
2017-05-25T12:29:42.717Z,19.30
2017-05-25T12:32:10.686Z,19.30
2017-05-25T12:34:38.336Z,19.30
2017-05-25T12:37:06.125Z,19.40
2017-05-25T12:39:34.576Z,19.40
2017-05-25T12:42:02.234Z,19.40
2017-05-25T12:44:30.251Z,19.50
2017-05-25T12:46:57.932Z,19.50
2017-05-25T12:49:25.604Z,19.60
2017-05-25T12:51:53.290Z,19.50
2017-05-25T12:54:20.953Z,19.50
2017-05-25T12:56:49.050Z,19.50
2017-05-25T12:59:16.764Z,19.50
2017-05-25T13:01:44.415Z,19.50
2017-05-25T13:04:12.122Z,19.90
2017-05-25T13:06:39.776Z,19.70
2017-05-25T13:09:08.563Z,19.80
2017-05-25T13:11:36.184Z,19.80
2017-05-25T13:14:04.608Z,19.60
2017-05-25T13:16:32.369Z,19.60
2017-05-25T13:19:00.033Z,19.70
2017-05-25T13:21:28.473Z,19.50
2017-05-25T13:23:56.865Z,19.50
2017-05-25T13:26:25.677Z,19.70
2017-05-25T13:28:54.096Z,19.90
2017-05-25T13:31:21.722Z,19.80
2017-05-25T13:33:49.429Z,19.80
2017-05-25T13:36:17.108Z,19.80
2017-05-25T13:38:44.778Z,19.70
2017-05-25T13:41:12.430Z,19.60
2017-05-25T13:43:40.122Z,19.40
2017-05-25T13:46:07.762Z,19.40
2017-05-25T13:48:35.702Z,19.30
2017-05-25T13:51:03.353Z,19.20
2017-05-25T13:53:31.022Z,19.30
2017-05-25T13:55:58.698Z,19.30
2017-05-25T13:58:27.118Z,19.90
2017-05-25T14:00:55.899Z,19.90
2017-05-25T14:03:23.543Z,19.80
2017-05-25T14:05:51.198Z,19.80
2017-05-25T14:08:18.882Z,19.70
2017-05-25T14:10:46.568Z,19.70
2017-05-25T14:13:14.529Z,19.70
2017-05-25T14:15:43.038Z,20.20
2017-05-25T14:18:11.526Z,20.10
2017-05-25T14:20:39.204Z,20.10
2017-05-25T14:23:07.625Z,19.90
2017-05-25T14:25:36.349Z,19.60
2017-05-25T14:28:03.999Z,19.60
2017-05-25T14:30:31.655Z,19.50
2017-05-25T14:33:00.100Z,19.30
2017-05-25T14:35:27.762Z,19.30
2017-05-25T14:37:56.529Z,19.10
2017-05-25T14:40:24.189Z,19.00
2017-05-25T14:42:52.955Z,19.00
2017-05-25T14:45:20.683Z,19.00
2017-05-25T14:47:48.345Z,19.20
2017-05-25T14:50:16.301Z,19.30
2017-05-25T14:52:43.971Z,19.30
2017-05-25T14:55:11.624Z,19.30
2017-05-25T14:57:39.358Z,19.30
2017-05-25T15:00:07.013Z,19.40
2017-05-25T15:02:35.041Z,19.50
2017-05-25T15:05:02.705Z,19.60
2017-05-25T15:07:30.354Z,19.40
2017-05-25T15:09:58.258Z,19.50
2017-05-25T15:12:26.179Z,19.70
2017-05-25T15:14:54.215Z,19.90
2017-05-25T15:17:22.630Z,19.70
2017-05-25T15:19:50.298Z,19.70
2017-05-25T15:22:18.037Z,19.50
2017-05-25T15:24:46.465Z,19.30
2017-05-25T15:27:14.408Z,19.30
2017-05-25T15:29:42.069Z,19.20
2017-05-25T15:32:10.504Z,19.40
2017-05-25T15:34:38.197Z,19.30
2017-05-25T15:37:06.624Z,19.50
2017-05-25T15:39:34.657Z,19.40
2017-05-25T15:42:03.069Z,19.50
2017-05-25T15:44:30.728Z,19.50
2017-05-25T15:46:58.398Z,19.40
2017-05-25T15:49:26.063Z,19.30
2017-05-25T15:51:54.034Z,19.20
2017-05-25T15:54:22.449Z,19.10
2017-05-25T15:56:50.109Z,19.10
2017-05-25T15:59:17.793Z,19.00
2017-05-25T16:01:45.441Z,19.00
2017-05-25T16:04:13.515Z,19.00
2017-05-25T16:06:41.992Z,19.00
2017-05-25T16:09:09.658Z,18.90
2017-05-25T16:11:37.333Z,19.00
2017-05-25T16:14:04.984Z,19.00
2017-05-25T16:16:33.050Z,19.00
2017-05-25T16:19:00.776Z,19.00
2017-05-25T16:21:28.433Z,18.90
2017-05-25T16:23:56.161Z,18.90
2017-05-25T16:26:23.838Z,18.90
2017-05-25T16:28:51.805Z,18.80
2017-05-25T16:31:19.478Z,18.80
2017-05-25T16:33:47.157Z,18.80
2017-05-25T16:36:14.841Z,18.80
2017-05-25T16:38:42.484Z,18.90
2017-05-25T16:41:10.651Z,18.90
2017-05-25T16:43:38.318Z,18.90
2017-05-25T16:46:07.453Z,19.00
2017-05-25T16:48:35.125Z,19.00
2017-05-25T16:51:02.857Z,19.00
2017-05-25T16:53:30.980Z,19.00
2017-05-25T16:55:58.624Z,19.00
2017-05-25T16:58:26.281Z,19.00
2017-05-25T17:00:54.015Z,18.90
2017-05-25T17:03:22.557Z,19.00
2017-05-25T17:05:50.646Z,18.90
2017-05-25T17:08:18.292Z,18.80
2017-05-25T17:10:46.191Z,18.80
2017-05-25T17:13:13.937Z,18.60
2017-05-25T17:15:41.601Z,18.40
2017-05-25T17:18:09.785Z,18.20
2017-05-25T17:20:37.470Z,18.10
2017-05-25T17:23:05.886Z,17.90
2017-05-25T17:25:33.570Z,17.90
2017-05-25T17:28:01.215Z,17.80
2017-05-25T17:30:29.911Z,17.60
2017-05-25T17:32:57.576Z,17.50
2017-05-25T17:35:25.247Z,17.40
2017-05-25T17:37:52.942Z,17.40
2017-05-25T17:40:20.602Z,17.40
2017-05-25T17:42:48.608Z,17.30
2017-05-25T17:45:17.043Z,17.00
2017-05-25T17:47:45.456Z,16.90
2017-05-25T17:50:13.145Z,16.90
2017-05-25T17:52:41.565Z,16.80
2017-05-25T17:55:09.546Z,16.70
2017-05-25T17:57:37.202Z,16.60
2017-05-25T18:00:04.860Z,16.60
2017-05-25T18:02:32.566Z,16.50
2017-05-25T18:05:01.033Z,16.40
2017-05-25T18:07:29.123Z,16.30
2017-05-25T18:09:57.013Z,16.20
2017-05-25T18:12:25.545Z,16.00
2017-05-25T18:14:53.270Z,16.00
2017-05-25T18:17:20.930Z,15.90
2017-05-25T18:19:49.357Z,15.80
2017-05-25T18:22:17.288Z,15.80
2017-05-25T18:24:44.967Z,15.80
2017-05-25T18:27:12.639Z,15.70
2017-05-25T18:29:41.346Z,15.60
2017-05-25T18:32:09.052Z,15.50
2017-05-25T18:34:36.701Z,15.60
2017-05-25T18:37:04.673Z,15.60
2017-05-25T18:39:32.330Z,15.50
2017-05-25T18:41:59.988Z,15.50
2017-05-25T18:44:27.752Z,15.40
2017-05-25T18:46:55.396Z,15.40
2017-05-25T18:49:24.134Z,15.20
2017-05-25T18:51:52.544Z,15.20
2017-05-25T18:54:20.244Z,15.10
2017-05-25T18:56:48.018Z,15.20
2017-05-25T18:59:15.676Z,15.10
2017-05-25T19:01:43.679Z,15.00
2017-05-25T19:04:11.347Z,15.00
2017-05-25T19:06:39.820Z,14.70
2017-05-25T19:09:07.510Z,14.70
2017-05-25T19:11:35.175Z,14.60
2017-05-25T19:14:03.139Z,14.60
2017-05-25T19:16:30.826Z,14.40
2017-05-25T19:18:58.502Z,14.40
2017-05-25T19:21:26.204Z,14.30
2017-05-25T19:23:54.665Z,14.20
2017-05-25T19:26:22.381Z,14.20
2017-05-25T19:28:50.052Z,14.10
2017-05-25T19:31:17.717Z,14.10
2017-05-25T19:33:45.413Z,14.10
2017-05-25T19:36:13.530Z,14.00
2017-05-25T19:38:41.257Z,14.00
2017-05-25T19:41:09.701Z,13.80
2017-05-25T19:43:37.361Z,13.70
2017-05-25T19:46:05.108Z,13.70
2017-05-25T19:48:32.823Z,13.60
2017-05-25T19:51:00.550Z,13.60
2017-05-25T19:53:28.317Z,13.60
2017-05-25T19:55:56.769Z,13.50
2017-05-25T19:58:24.464Z,13.40
2017-05-25T20:00:52.950Z,13.40
2017-05-25T20:03:20.988Z,13.30
2017-05-25T20:05:49.418Z,13.30
2017-05-25T20:08:17.069Z,13.20
2017-05-25T20:10:45.508Z,13.20
2017-05-25T20:13:13.919Z,13.10
2017-05-25T20:15:41.899Z,13.10
2017-05-25T20:18:09.541Z,13.00
2017-05-25T20:20:37.185Z,13.00
2017-05-25T20:23:04.861Z,12.90
2017-05-25T20:25:32.525Z,12.80
2017-05-25T20:28:00.517Z,12.70
2017-05-25T20:30:28.156Z,12.70
2017-05-25T20:32:55.823Z,12.50
2017-05-25T20:35:23.555Z,12.40
2017-05-25T20:37:51.213Z,12.30
2017-05-25T20:40:20.029Z,12.20
2017-05-25T20:42:47.704Z,12.20
2017-05-25T20:45:15.392Z,12.10
2017-05-25T20:47:43.857Z,12.00
2017-05-25T20:50:11.582Z,11.90
2017-05-25T20:52:39.551Z,11.90
2017-05-25T20:55:07.218Z,11.80
2017-05-25T20:57:34.881Z,11.80
2017-05-25T21:00:03.332Z,11.60
2017-05-25T21:02:30.984Z,11.60
2017-05-25T21:04:58.708Z,11.60
2017-05-25T21:07:26.357Z,11.60
2017-05-25T21:09:54.318Z,11.60
2017-05-25T21:12:22.006Z,11.50
2017-05-25T21:14:49.661Z,11.40
2017-05-25T21:17:18.108Z,11.40
2017-05-25T21:19:46.529Z,11.40
2017-05-25T21:22:14.501Z,11.30
2017-05-25T21:24:42.155Z,11.40
2017-05-25T21:27:09.820Z,11.30
2017-05-25T21:29:37.563Z,11.30
2017-05-25T21:32:05.217Z,11.20
2017-05-25T21:34:33.328Z,11.10
2017-05-25T21:37:01.018Z,11.10
2017-05-25T21:39:28.689Z,11.00
2017-05-25T21:41:56.373Z,11.00
2017-05-25T21:44:24.801Z,10.90
2017-05-25T21:46:52.802Z,10.80
2017-05-25T21:49:20.470Z,10.90
2017-05-25T21:51:48.127Z,10.90
2017-05-25T21:54:15.804Z,10.80
2017-05-25T21:56:44.221Z,10.70
2017-05-25T21:59:12.273Z,10.70
2017-05-25T22:01:39.925Z,10.70
2017-05-25T22:04:08.363Z,10.60
2017-05-25T22:06:36.056Z,10.60
2017-05-25T22:09:03.723Z,10.60
2017-05-25T22:11:31.716Z,10.70
2017-05-25T22:13:59.383Z,10.60
2017-05-25T22:16:27.033Z,10.60
2017-05-25T22:18:54.796Z,10.70
2017-05-25T22:21:23.211Z,10.60
2017-05-25T22:23:52.005Z,10.60
2017-05-25T22:26:19.778Z,10.60
2017-05-25T22:28:47.434Z,10.50
2017-05-25T22:31:15.882Z,10.40
2017-05-25T22:33:44.304Z,10.50
2017-05-25T22:36:12.292Z,10.40
2017-05-25T22:38:39.952Z,10.40
2017-05-25T22:41:08.368Z,10.50
2017-05-25T22:43:36.059Z,10.40
2017-05-25T22:46:04.472Z,10.30
2017-05-25T22:48:32.456Z,10.20
2017-05-25T22:51:00.106Z,10.30
2017-05-25T22:53:28.541Z,10.30
2017-05-25T22:55:56.228Z,10.30
2017-05-25T22:58:23.877Z,10.30
2017-05-25T23:00:51.920Z,10.10
2017-05-25T23:03:19.572Z,10.10
2017-05-25T23:05:47.229Z,10.10
2017-05-25T23:08:14.896Z,10.00
2017-05-25T23:10:43.313Z,9.90
2017-05-25T23:13:11.277Z,9.90
2017-05-25T23:15:38.941Z,9.90
2017-05-25T23:18:06.602Z,9.90
2017-05-25T23:20:34.350Z,9.90
2017-05-25T23:23:01.998Z,9.90
2017-05-25T23:25:30.786Z,10.00
2017-05-25T23:27:58.437Z,9.90
2017-05-25T23:30:26.119Z,9.90
2017-05-25T23:32:53.821Z,9.90
2017-05-25T23:35:22.245Z,9.90
2017-05-25T23:37:51.017Z,9.90
2017-05-25T23:40:18.660Z,9.80
2017-05-25T23:42:46.322Z,9.90
2017-05-25T23:45:14.001Z,9.90
2017-05-25T23:47:41.659Z,9.80
2017-05-25T23:50:09.664Z,9.80
2017-05-25T23:52:37.309Z,9.80
2017-05-25T23:55:04.957Z,9.80
2017-05-25T23:57:33.402Z,9.70
